createdAt,value
2018-05-08T00:00:14.847Z,0.00
2018-05-08T00:01:14.722Z,0.00
2018-05-08T00:02:14.598Z,0.00
2018-05-08T00:03:14.477Z,0.00
2018-05-08T00:04:14.352Z,0.00
2018-05-08T00:05:14.224Z,0.00
2018-05-08T00:06:14.101Z,0.00
2018-05-08T00:07:13.975Z,0.00
2018-05-08T00:08:13.851Z,0.00
2018-05-08T00:09:13.724Z,0.00
2018-05-08T00:10:13.602Z,0.00
2018-05-08T00:11:13.477Z,0.00
2018-05-08T00:12:13.351Z,0.00
2018-05-08T00:13:13.231Z,0.00
2018-05-08T00:14:13.105Z,0.00
2018-05-08T00:15:12.983Z,0.00
2018-05-08T00:16:12.852Z,0.00
2018-05-08T00:17:12.728Z,0.00
2018-05-08T00:18:12.605Z,0.00
2018-05-08T00:19:12.480Z,0.00
2018-05-08T00:20:12.356Z,0.00
2018-05-08T00:21:12.233Z,0.00
2018-05-08T00:22:12.106Z,0.00
2018-05-08T00:23:11.982Z,0.00
2018-05-08T00:24:11.857Z,0.00
2018-05-08T00:25:11.733Z,0.00
2018-05-08T00:26:11.607Z,0.00
2018-05-08T00:27:11.484Z,0.00
2018-05-08T00:28:11.359Z,0.00
2018-05-08T00:29:11.233Z,0.00
2018-05-08T00:30:11.110Z,0.00
2018-05-08T00:31:10.983Z,0.00
2018-05-08T00:32:10.860Z,0.00
2018-05-08T00:33:10.732Z,0.00
2018-05-08T00:34:10.610Z,0.00
2018-05-08T00:35:10.485Z,0.00
2018-05-08T00:36:10.361Z,0.00
2018-05-08T00:37:10.233Z,0.00
2018-05-08T00:38:10.111Z,0.00
2018-05-08T00:39:09.987Z,0.00
2018-05-08T00:40:09.865Z,0.00
2018-05-08T00:41:09.735Z,0.00
2018-05-08T00:42:09.611Z,0.00
2018-05-08T00:43:09.485Z,0.00
2018-05-08T00:44:09.408Z,0.00
2018-05-08T00:45:09.239Z,0.00
2018-05-08T00:46:09.111Z,0.00
2018-05-08T00:47:08.988Z,0.00
2018-05-08T00:48:08.861Z,0.00
2018-05-08T00:49:08.736Z,0.00
2018-05-08T00:50:08.613Z,0.00
2018-05-08T00:51:08.487Z,0.00
2018-05-08T00:52:08.362Z,0.00
2018-05-08T00:53:08.239Z,0.00
2018-05-08T00:54:08.112Z,0.00
2018-05-08T00:55:07.988Z,0.00
2018-05-08T00:56:07.861Z,0.00
2018-05-08T00:57:07.737Z,0.00
2018-05-08T00:58:07.611Z,0.00
2018-05-08T00:59:07.488Z,0.00
2018-05-08T01:00:07.362Z,0.00
2018-05-08T01:01:07.241Z,0.00
2018-05-08T01:02:07.113Z,0.00
2018-05-08T01:03:06.986Z,0.00
2018-05-08T01:04:06.859Z,0.00
2018-05-08T01:05:06.735Z,0.00
2018-05-08T01:06:06.614Z,0.00
2018-05-08T01:07:06.487Z,0.00
2018-05-08T01:08:06.360Z,0.00
2018-05-08T01:09:06.234Z,0.00
2018-05-08T01:10:06.111Z,0.00
2018-05-08T01:11:05.985Z,0.00
2018-05-08T01:12:05.864Z,0.00
2018-05-08T01:13:05.741Z,0.00
2018-05-08T01:14:05.612Z,0.00
2018-05-08T01:15:05.555Z,0.00
2018-05-08T01:16:05.358Z,0.00
2018-05-08T01:17:05.285Z,0.00
2018-05-08T01:18:05.111Z,0.00
2018-05-08T01:19:04.986Z,0.00
2018-05-08T01:20:04.859Z,0.00
2018-05-08T01:21:04.734Z,0.00
2018-05-08T01:22:04.618Z,0.00
2018-05-08T01:23:04.484Z,0.00
2018-05-08T01:24:04.360Z,0.00
2018-05-08T01:25:04.236Z,0.00
2018-05-08T01:26:04.109Z,0.00
2018-05-08T01:27:03.984Z,0.00
2018-05-08T01:28:03.859Z,0.00
2018-05-08T01:29:03.735Z,0.00
2018-05-08T01:30:03.609Z,0.00
2018-05-08T01:31:03.484Z,0.00
2018-05-08T01:32:03.360Z,0.00
2018-05-08T01:33:03.232Z,0.00
2018-05-08T01:34:03.110Z,0.00
2018-05-08T01:35:02.985Z,0.00
2018-05-08T01:36:02.859Z,0.00
2018-05-08T01:37:02.734Z,0.00
2018-05-08T01:38:02.612Z,0.00
2018-05-08T01:39:02.485Z,0.00
2018-05-08T01:40:02.362Z,0.00
2018-05-08T01:41:02.232Z,0.00
2018-05-08T01:42:02.110Z,0.00
2018-05-08T01:43:01.984Z,0.00
2018-05-08T01:44:01.858Z,0.00
2018-05-08T01:45:01.734Z,0.00
2018-05-08T01:46:01.610Z,0.00
2018-05-08T01:47:01.486Z,0.00
2018-05-08T01:48:01.357Z,0.00
2018-05-08T01:49:01.236Z,0.00
2018-05-08T01:50:01.110Z,0.00
2018-05-08T01:51:00.983Z,0.00
2018-05-08T01:52:00.861Z,0.00
2018-05-08T01:53:00.733Z,0.00
2018-05-08T01:54:00.606Z,0.00
2018-05-08T01:55:00.482Z,0.00
2018-05-08T01:56:00.357Z,0.00
2018-05-08T01:57:00.233Z,0.00
2018-05-08T01:58:00.106Z,0.00
2018-05-08T01:58:59.980Z,0.00
2018-05-08T01:59:59.860Z,0.00
2018-05-08T02:00:59.731Z,0.00
2018-05-08T02:01:59.605Z,0.00
2018-05-08T02:02:59.483Z,0.00
2018-05-08T02:03:59.355Z,0.00
2018-05-08T02:04:59.230Z,0.00
2018-05-08T02:05:59.109Z,0.00
2018-05-08T02:06:58.980Z,0.00
2018-05-08T02:07:58.853Z,0.00
2018-05-08T02:08:58.730Z,0.00
2018-05-08T02:09:58.603Z,0.00
2018-05-08T02:10:58.478Z,0.00
2018-05-08T02:11:58.355Z,0.00
2018-05-08T02:12:58.227Z,0.00
2018-05-08T02:13:58.101Z,0.00
2018-05-08T02:14:57.976Z,0.00
2018-05-08T02:15:57.853Z,0.00
2018-05-08T02:16:57.726Z,0.00
2018-05-08T02:17:57.600Z,0.00
2018-05-08T02:18:57.476Z,0.00
2018-05-08T02:19:57.348Z,0.00
2018-05-08T02:20:57.230Z,0.00
2018-05-08T02:21:57.098Z,0.00
2018-05-08T02:22:56.976Z,0.00
2018-05-08T02:23:56.846Z,0.00
2018-05-08T02:24:56.723Z,0.00
2018-05-08T02:25:56.598Z,0.00
2018-05-08T02:26:56.472Z,0.00
2018-05-08T02:27:56.346Z,0.00
2018-05-08T02:28:56.222Z,0.00
2018-05-08T02:29:56.097Z,0.00
2018-05-08T02:30:55.972Z,0.00
2018-05-08T02:31:55.845Z,0.00
2018-05-08T02:32:55.723Z,0.00
2018-05-08T02:33:55.591Z,0.00
2018-05-08T02:34:55.466Z,0.00
2018-05-08T02:35:55.342Z,0.00
2018-05-08T02:36:55.219Z,0.00
2018-05-08T02:37:55.091Z,0.00
2018-05-08T02:38:54.968Z,0.00
2018-05-08T02:39:54.838Z,0.00
2018-05-08T02:40:54.713Z,0.00
2018-05-08T02:41:54.588Z,0.00
2018-05-08T02:42:54.464Z,0.00
2018-05-08T02:43:54.335Z,0.00
2018-05-08T02:44:54.211Z,0.00
2018-05-08T02:45:54.088Z,0.00
2018-05-08T02:46:53.961Z,0.00
2018-05-08T02:47:53.835Z,0.00
2018-05-08T02:48:53.709Z,0.00
2018-05-08T02:49:53.586Z,0.00
2018-05-08T02:50:53.458Z,0.00
2018-05-08T02:51:53.333Z,0.00
2018-05-08T02:52:53.215Z,0.00
2018-05-08T02:53:53.081Z,0.00
2018-05-08T02:54:52.955Z,0.00
2018-05-08T02:55:52.831Z,0.00
2018-05-08T02:56:52.717Z,0.00
2018-05-08T02:57:52.580Z,0.00
2018-05-08T02:58:52.455Z,0.00
2018-05-08T02:59:52.328Z,0.00
2018-05-08T03:00:52.204Z,0.00
2018-05-08T03:01:52.082Z,0.00
2018-05-08T03:02:51.955Z,0.00
2018-05-08T03:03:51.830Z,0.00
2018-05-08T03:04:51.701Z,0.00
2018-05-08T03:05:51.574Z,0.00
2018-05-08T03:06:51.452Z,0.00
2018-05-08T03:07:51.324Z,0.00
2018-05-08T03:08:51.201Z,0.00
2018-05-08T03:09:51.074Z,0.00
2018-05-08T03:10:50.948Z,0.00
2018-05-08T03:11:50.823Z,0.00
2018-05-08T03:12:50.694Z,0.00
2018-05-08T03:13:50.570Z,0.00
2018-05-08T03:14:50.446Z,0.00
2018-05-08T03:15:50.319Z,0.00
2018-05-08T03:16:50.193Z,0.00
2018-05-08T03:17:50.067Z,0.00
2018-05-08T03:18:49.941Z,0.00
2018-05-08T03:19:49.814Z,0.00
2018-05-08T03:20:49.692Z,0.00
2018-05-08T03:21:49.565Z,0.00
2018-05-08T03:22:49.441Z,0.00
2018-05-08T03:23:49.313Z,0.00
2018-05-08T03:24:49.190Z,0.00
2018-05-08T03:25:49.064Z,0.00
2018-05-08T03:26:48.936Z,0.00
2018-05-08T03:27:48.809Z,0.00
2018-05-08T03:28:48.688Z,0.00
2018-05-08T03:29:48.562Z,0.00
2018-05-08T03:30:48.434Z,0.00
2018-05-08T03:31:48.307Z,0.00
2018-05-08T03:32:48.180Z,0.00
2018-05-08T03:33:48.056Z,0.00
2018-05-08T03:34:47.932Z,0.00
2018-05-08T03:35:47.804Z,0.00
2018-05-08T03:36:47.684Z,0.00
2018-05-08T03:37:47.551Z,0.00
2018-05-08T03:38:47.429Z,0.00
2018-05-08T03:39:47.300Z,0.00
2018-05-08T03:40:47.176Z,0.00
2018-05-08T03:41:47.052Z,0.00
2018-05-08T03:42:46.925Z,0.00
2018-05-08T03:43:46.802Z,0.00
2018-05-08T03:44:46.675Z,0.00
2018-05-08T03:45:46.548Z,0.00
2018-05-08T03:46:46.424Z,0.00
2018-05-08T03:47:46.298Z,0.00
2018-05-08T03:48:46.172Z,0.00
2018-05-08T03:49:46.047Z,0.00
2018-05-08T03:50:45.921Z,0.00
2018-05-08T03:51:45.797Z,0.00
2018-05-08T03:52:45.671Z,0.00
2018-05-08T03:53:45.543Z,0.00
2018-05-08T03:54:45.419Z,0.00
2018-05-08T03:55:45.291Z,0.00
2018-05-08T03:56:45.174Z,0.00
2018-05-08T03:57:45.056Z,5.63
2018-05-08T03:58:44.925Z,5.63
2018-05-08T03:59:44.789Z,5.63
2018-05-08T04:00:44.663Z,5.63
2018-05-08T04:01:44.547Z,5.63
2018-05-08T04:02:44.413Z,5.63
2018-05-08T04:03:44.290Z,5.63
2018-05-08T04:04:44.160Z,5.63
2018-05-08T04:05:44.039Z,5.63
2018-05-08T04:06:43.911Z,5.63
2018-05-08T04:07:43.784Z,5.63
2018-05-08T04:08:43.659Z,11.25
2018-05-08T04:09:43.538Z,11.25
2018-05-08T04:10:43.410Z,11.25
2018-05-08T04:11:43.284Z,11.25
2018-05-08T04:12:43.157Z,11.25
2018-05-08T04:13:43.034Z,11.25
2018-05-08T04:14:42.907Z,11.25
2018-05-08T04:15:42.781Z,11.25
2018-05-08T04:16:42.654Z,16.88
2018-05-08T04:17:42.530Z,16.88
2018-05-08T04:18:42.404Z,16.88
2018-05-08T04:19:42.283Z,16.88
2018-05-08T04:20:42.156Z,16.88
2018-05-08T04:21:42.025Z,16.88
2018-05-08T04:22:41.902Z,16.88
2018-05-08T04:23:41.776Z,16.88
2018-05-08T04:24:41.649Z,16.88
2018-05-08T04:25:41.524Z,22.50
2018-05-08T04:26:41.397Z,22.50
2018-05-08T04:27:41.272Z,22.50
2018-05-08T04:28:41.144Z,22.50
2018-05-08T04:29:41.018Z,22.50
2018-05-08T04:30:40.895Z,22.50
2018-05-08T04:31:40.768Z,22.50
2018-05-08T04:32:40.642Z,22.50
2018-05-08T04:33:40.521Z,22.50
2018-05-08T04:34:40.391Z,28.13
2018-05-08T04:35:40.262Z,28.13
2018-05-08T04:36:40.240Z,28.13
2018-05-08T04:37:40.014Z,28.13
2018-05-08T04:38:39.888Z,28.13
2018-05-08T04:39:39.763Z,28.13
2018-05-08T04:40:39.638Z,28.13
2018-05-08T04:41:39.509Z,28.13
2018-05-08T04:42:39.383Z,28.13
2018-05-08T04:43:39.259Z,28.13
2018-05-08T04:44:39.134Z,33.75
2018-05-08T04:45:39.010Z,33.75
2018-05-08T04:46:38.885Z,33.75
2018-05-08T04:47:38.754Z,33.75
2018-05-08T04:48:38.635Z,33.75
2018-05-08T04:49:38.505Z,33.75
2018-05-08T04:50:38.382Z,39.38
2018-05-08T04:51:38.255Z,50.63
2018-05-08T04:52:38.127Z,50.63
2018-05-08T04:53:38.005Z,56.25
2018-05-08T04:54:37.877Z,56.25
2018-05-08T04:55:37.752Z,61.88
2018-05-08T04:56:37.630Z,61.88
2018-05-08T04:57:37.503Z,61.88
2018-05-08T04:58:37.382Z,61.88
2018-05-08T04:59:37.250Z,61.88
2018-05-08T05:00:37.131Z,67.50
2018-05-08T05:01:37.000Z,67.50
2018-05-08T05:02:36.882Z,67.50
2018-05-08T05:03:36.750Z,67.50
2018-05-08T05:04:36.626Z,67.50
2018-05-08T05:05:36.500Z,67.50
2018-05-08T05:06:36.383Z,67.50
2018-05-08T05:07:36.250Z,73.13
2018-05-08T05:08:36.127Z,73.13
2018-05-08T05:09:36.000Z,73.13
2018-05-08T05:10:35.878Z,73.13
2018-05-08T05:11:35.753Z,73.13
2018-05-08T05:12:35.626Z,73.13
2018-05-08T05:13:35.502Z,73.13
2018-05-08T05:14:35.382Z,73.13
2018-05-08T05:15:35.258Z,73.13
2018-05-08T05:16:35.130Z,73.13
2018-05-08T05:17:35.003Z,73.13
2018-05-08T05:18:34.878Z,73.13
2018-05-08T05:19:34.751Z,73.13
2018-05-08T05:20:34.632Z,73.13
2018-05-08T05:21:34.505Z,73.13
2018-05-08T05:22:34.381Z,73.13
2018-05-08T05:23:34.255Z,73.13
2018-05-08T05:24:34.218Z,78.75
2018-05-08T05:25:34.007Z,78.75
2018-05-08T05:26:33.883Z,78.75
2018-05-08T05:27:33.758Z,78.75
2018-05-08T05:28:33.635Z,78.75
2018-05-08T05:29:33.510Z,78.75
2018-05-08T05:30:33.390Z,78.75
2018-05-08T05:31:33.342Z,78.75
2018-05-08T05:32:33.138Z,84.38
2018-05-08T05:33:33.018Z,84.38
2018-05-08T05:34:32.891Z,84.38
2018-05-08T05:35:32.769Z,84.38
2018-05-08T05:36:32.641Z,84.38
2018-05-08T05:37:32.521Z,84.38
2018-05-08T05:38:32.396Z,84.38
2018-05-08T05:39:32.268Z,84.38
2018-05-08T05:40:32.146Z,84.38
2018-05-08T05:41:32.022Z,84.38
2018-05-08T05:42:31.904Z,90.00
2018-05-08T05:43:31.777Z,90.00
2018-05-08T05:44:31.651Z,90.00
2018-05-08T05:45:31.527Z,90.00
2018-05-08T05:46:31.403Z,90.00
2018-05-08T05:47:31.281Z,90.00
2018-05-08T05:48:31.155Z,90.00
2018-05-08T05:49:31.034Z,90.00
2018-05-08T05:50:30.913Z,90.00
2018-05-08T05:51:30.785Z,90.00
2018-05-08T05:52:30.661Z,90.00
2018-05-08T05:53:30.537Z,95.63
2018-05-08T05:54:30.414Z,95.63
2018-05-08T05:55:30.290Z,95.63
2018-05-08T05:56:30.169Z,95.63
2018-05-08T05:57:30.043Z,95.63
2018-05-08T05:58:29.924Z,95.63
2018-05-08T05:59:29.801Z,95.63
2018-05-08T06:00:29.674Z,95.63
2018-05-08T06:01:29.552Z,95.63
2018-05-08T06:02:29.429Z,95.63
2018-05-08T06:03:29.303Z,101.25
2018-05-08T06:04:29.178Z,101.25
2018-05-08T06:05:29.056Z,101.25
2018-05-08T06:06:28.935Z,101.25
2018-05-08T06:07:28.809Z,101.25
2018-05-08T06:08:28.687Z,101.25
2018-05-08T06:09:28.563Z,101.25
2018-05-08T06:10:28.437Z,101.25
2018-05-08T06:11:28.315Z,101.25
2018-05-08T06:12:28.189Z,101.25
2018-05-08T06:13:28.068Z,101.25
2018-05-08T06:14:27.945Z,101.25
2018-05-08T06:15:27.821Z,106.88
2018-05-08T06:16:27.697Z,106.88
2018-05-08T06:17:27.580Z,106.88
2018-05-08T06:18:27.452Z,106.88
2018-05-08T06:19:27.331Z,106.88
2018-05-08T06:20:27.284Z,106.88
2018-05-08T06:21:27.084Z,106.88
2018-05-08T06:22:26.961Z,106.88
2018-05-08T06:23:26.835Z,106.88
2018-05-08T06:24:26.712Z,106.88
2018-05-08T06:25:26.592Z,106.88
2018-05-08T06:26:26.469Z,106.88
2018-05-08T06:27:26.344Z,106.88
2018-05-08T06:28:26.279Z,106.88
2018-05-08T06:29:26.099Z,112.50
2018-05-08T06:30:25.979Z,112.50
2018-05-08T06:31:25.854Z,112.50
2018-05-08T06:32:25.732Z,112.50
2018-05-08T06:33:25.612Z,112.50
2018-05-08T06:34:25.525Z,112.50
2018-05-08T06:35:25.373Z,112.50
2018-05-08T06:36:25.243Z,112.50
2018-05-08T06:37:25.118Z,112.50
2018-05-08T06:38:25.001Z,112.50
2018-05-08T06:39:24.923Z,112.50
2018-05-08T06:40:24.754Z,112.50
2018-05-08T06:41:24.632Z,112.50
2018-05-08T06:42:24.511Z,112.50
2018-05-08T06:43:24.389Z,112.50
2018-05-08T06:44:24.363Z,112.50
2018-05-08T06:45:24.143Z,112.50
2018-05-08T06:46:24.022Z,112.50
2018-05-08T06:47:23.896Z,112.50
2018-05-08T06:48:23.783Z,112.50
2018-05-08T06:49:23.657Z,112.50
2018-05-08T06:50:23.537Z,112.50
2018-05-08T06:51:23.412Z,112.50
2018-05-08T06:52:23.290Z,112.50
2018-05-08T06:53:23.167Z,112.50
2018-05-08T06:54:23.045Z,112.50
2018-05-08T06:55:22.924Z,112.50
2018-05-08T06:56:22.805Z,112.50
2018-05-08T06:57:22.681Z,112.50
2018-05-08T06:58:22.559Z,112.50
2018-05-08T06:59:22.436Z,118.13
2018-05-08T07:00:22.320Z,118.13
2018-05-08T07:01:22.192Z,118.13
2018-05-08T07:02:22.071Z,118.13
2018-05-08T07:03:21.950Z,118.13
2018-05-08T07:04:21.831Z,118.13
2018-05-08T07:05:21.706Z,118.13
2018-05-08T07:06:21.583Z,118.13
2018-05-08T07:07:21.466Z,118.13
2018-05-08T07:08:21.339Z,118.13
2018-05-08T07:09:21.218Z,118.13
2018-05-08T07:10:21.101Z,118.13
2018-05-08T07:11:20.974Z,118.13
2018-05-08T07:12:20.859Z,118.13
2018-05-08T07:13:20.737Z,123.75
2018-05-08T07:14:20.614Z,123.75
2018-05-08T07:15:20.489Z,123.75
2018-05-08T07:16:20.371Z,123.75
2018-05-08T07:17:20.249Z,123.75
2018-05-08T07:18:20.129Z,123.75
2018-05-08T07:19:20.006Z,123.75
2018-05-08T07:20:19.886Z,123.75
2018-05-08T07:21:19.764Z,123.75
2018-05-08T07:22:19.642Z,123.75
2018-05-08T07:23:19.521Z,123.75
2018-05-08T07:24:19.457Z,123.75
2018-05-08T07:25:19.278Z,123.75
2018-05-08T07:26:19.165Z,123.75
2018-05-08T07:27:19.037Z,135.00
2018-05-08T07:28:18.919Z,129.38
2018-05-08T07:29:18.797Z,129.38
2018-05-08T07:30:18.676Z,129.38
2018-05-08T07:31:18.553Z,129.38
2018-05-08T07:32:18.435Z,129.38
2018-05-08T07:33:18.314Z,129.38
2018-05-08T07:34:18.194Z,129.38
2018-05-08T07:35:18.070Z,129.38
2018-05-08T07:36:17.954Z,129.38
2018-05-08T07:37:17.837Z,129.38
2018-05-08T07:38:17.762Z,135.00
2018-05-08T07:39:17.593Z,135.00
2018-05-08T07:40:17.471Z,135.00
2018-05-08T07:41:17.350Z,135.00
2018-05-08T07:42:17.230Z,135.00
2018-05-08T07:43:17.105Z,135.00
2018-05-08T07:44:16.990Z,135.00
2018-05-08T07:45:16.871Z,135.00
2018-05-08T07:46:16.749Z,140.63
2018-05-08T07:47:16.625Z,140.63
2018-05-08T07:48:16.506Z,140.63
2018-05-08T07:49:16.387Z,140.63
2018-05-08T07:50:16.266Z,140.63
2018-05-08T07:51:16.149Z,140.63
2018-05-08T07:52:16.026Z,140.63
2018-05-08T07:53:15.907Z,140.63
2018-05-08T07:54:15.788Z,140.63
2018-05-08T07:55:15.666Z,140.63
2018-05-08T07:56:15.543Z,140.63
2018-05-08T07:57:15.427Z,140.63
2018-05-08T07:58:15.305Z,146.25
2018-05-08T07:59:15.183Z,146.25
2018-05-08T08:00:15.064Z,146.25
2018-05-08T08:01:14.944Z,146.25
2018-05-08T08:02:14.826Z,146.25
2018-05-08T08:03:14.712Z,146.25
2018-05-08T08:04:14.584Z,146.25
2018-05-08T08:05:14.465Z,146.25
2018-05-08T08:06:14.347Z,146.25
2018-05-08T08:07:14.225Z,151.88
2018-05-08T08:08:14.109Z,146.25
2018-05-08T08:09:13.988Z,151.88
2018-05-08T08:10:13.869Z,146.25
2018-05-08T08:11:13.750Z,151.88
2018-05-08T08:12:13.632Z,151.88
2018-05-08T08:13:13.507Z,151.88
2018-05-08T08:14:13.390Z,151.88
2018-05-08T08:15:13.266Z,151.88
2018-05-08T08:16:13.150Z,157.50
2018-05-08T08:17:13.027Z,163.13
2018-05-08T08:18:12.910Z,168.75
2018-05-08T08:19:12.790Z,163.13
2018-05-08T08:20:12.672Z,157.50
2018-05-08T08:21:12.553Z,163.13
2018-05-08T08:22:12.433Z,168.75
2018-05-08T08:23:12.317Z,174.38
2018-05-08T08:24:12.192Z,174.38
2018-05-08T08:25:12.074Z,174.38
2018-05-08T08:26:11.957Z,180.00
2018-05-08T08:27:11.835Z,180.00
2018-05-08T08:28:11.715Z,174.38
2018-05-08T08:29:11.599Z,163.13
2018-05-08T08:30:11.482Z,163.13
2018-05-08T08:31:11.362Z,163.13
2018-05-08T08:32:11.241Z,163.13
2018-05-08T08:33:11.126Z,157.50
2018-05-08T08:34:11.003Z,157.50
2018-05-08T08:35:10.884Z,157.50
2018-05-08T08:36:10.764Z,157.50
2018-05-08T08:37:10.651Z,157.50
2018-05-08T08:38:10.530Z,163.13
2018-05-08T08:39:10.411Z,163.13
2018-05-08T08:40:10.293Z,163.13
2018-05-08T08:41:10.183Z,168.75
2018-05-08T08:42:10.055Z,168.75
2018-05-08T08:43:09.937Z,163.13
2018-05-08T08:44:09.818Z,163.13
2018-05-08T08:45:09.701Z,168.75
2018-05-08T08:46:09.582Z,151.88
2018-05-08T08:47:09.464Z,168.75
2018-05-08T08:48:09.346Z,157.50
2018-05-08T08:49:09.229Z,157.50
2018-05-08T08:50:09.108Z,168.75
2018-05-08T08:51:08.998Z,180.00
2018-05-08T08:52:08.872Z,163.13
2018-05-08T08:53:08.756Z,157.50
2018-05-08T08:54:08.645Z,157.50
2018-05-08T08:55:08.519Z,163.13
2018-05-08T08:56:08.421Z,180.00
2018-05-08T08:57:08.280Z,185.63
2018-05-08T08:58:08.163Z,180.00
2018-05-08T08:59:08.046Z,185.63
2018-05-08T09:00:07.931Z,191.25
2018-05-08T09:01:07.809Z,196.88
2018-05-08T09:02:07.693Z,213.75
2018-05-08T09:03:07.574Z,219.38
2018-05-08T09:04:07.547Z,225.00
2018-05-08T09:05:07.337Z,230.63
2018-05-08T09:06:07.218Z,236.25
2018-05-08T09:07:07.100Z,225.00
2018-05-08T09:08:06.984Z,230.63
2018-05-08T09:09:06.865Z,230.63
2018-05-08T09:10:06.746Z,236.25
2018-05-08T09:11:06.633Z,241.88
2018-05-08T09:12:06.511Z,247.50
2018-05-08T09:13:06.397Z,258.75
2018-05-08T09:14:06.278Z,270.00
2018-05-08T09:15:06.217Z,270.00
2018-05-08T09:16:06.040Z,270.00
2018-05-08T09:17:05.922Z,264.38
2018-05-08T09:18:05.807Z,264.38
2018-05-08T09:19:05.688Z,270.00
2018-05-08T09:20:05.571Z,264.38
2018-05-08T09:21:05.451Z,253.13
2018-05-08T09:22:05.334Z,253.13
2018-05-08T09:23:05.216Z,247.50
2018-05-08T09:24:05.100Z,253.13
2018-05-08T09:25:04.982Z,270.00
2018-05-08T09:26:04.869Z,298.13
2018-05-08T09:27:04.747Z,337.50
2018-05-08T09:28:04.629Z,360.00
2018-05-08T09:29:04.515Z,365.63
2018-05-08T09:30:04.395Z,360.00
2018-05-08T09:31:04.278Z,348.75
2018-05-08T09:32:04.160Z,343.13
2018-05-08T09:33:04.053Z,365.63
2018-05-08T09:34:03.924Z,382.50
2018-05-08T09:35:03.807Z,365.63
2018-05-08T09:36:03.687Z,360.00
2018-05-08T09:37:03.570Z,354.38
2018-05-08T09:38:03.456Z,354.38
2018-05-08T09:39:03.344Z,365.63
2018-05-08T09:40:03.222Z,360.00
2018-05-08T09:41:03.169Z,343.13
2018-05-08T09:42:02.986Z,326.25
2018-05-08T09:43:02.869Z,309.38
2018-05-08T09:44:02.755Z,326.25
2018-05-08T09:45:02.634Z,343.13
2018-05-08T09:46:02.519Z,348.75
2018-05-08T09:47:02.398Z,371.25
2018-05-08T09:48:02.282Z,393.75
2018-05-08T09:49:02.177Z,388.13
2018-05-08T09:50:02.049Z,376.88
2018-05-08T09:51:01.933Z,382.50
2018-05-08T09:52:01.817Z,376.88
2018-05-08T09:53:01.699Z,376.88
2018-05-08T09:54:01.582Z,360.00
2018-05-08T09:55:01.465Z,360.00
2018-05-08T09:56:01.351Z,365.63
2018-05-08T09:57:01.233Z,365.63
2018-05-08T09:58:01.118Z,360.00
2018-05-08T09:59:00.998Z,399.38
2018-05-08T10:00:00.883Z,410.63
2018-05-08T10:01:00.792Z,416.25
2018-05-08T10:02:00.649Z,438.75
2018-05-08T10:03:00.537Z,444.38
2018-05-08T10:04:00.417Z,433.13
2018-05-08T10:05:00.302Z,405.00
2018-05-08T10:06:00.186Z,399.38
2018-05-08T10:07:00.068Z,399.38
2018-05-08T10:07:59.950Z,393.75
2018-05-08T10:08:59.837Z,388.13
2018-05-08T10:09:59.720Z,376.88
2018-05-08T10:10:59.651Z,382.50
2018-05-08T10:11:59.486Z,393.75
2018-05-08T10:12:59.371Z,382.50
2018-05-08T10:13:59.258Z,405.00
2018-05-08T10:14:59.138Z,399.38
2018-05-08T10:15:59.022Z,360.00
2018-05-08T10:16:58.908Z,416.25
2018-05-08T10:17:58.793Z,416.25
2018-05-08T10:18:58.680Z,365.63
2018-05-08T10:19:58.559Z,388.13
2018-05-08T10:20:58.447Z,455.63
2018-05-08T10:21:58.334Z,495.00
2018-05-08T10:22:58.215Z,489.38
2018-05-08T10:23:58.102Z,500.63
2018-05-08T10:24:57.983Z,489.38
2018-05-08T10:25:57.866Z,478.13
2018-05-08T10:26:57.752Z,461.25
2018-05-08T10:27:57.636Z,461.25
2018-05-08T10:28:57.524Z,466.88
2018-05-08T10:29:57.406Z,461.25
2018-05-08T10:30:57.293Z,438.75
2018-05-08T10:31:57.177Z,427.50
2018-05-08T10:32:57.107Z,416.25
2018-05-08T10:33:56.947Z,416.25
2018-05-08T10:34:56.837Z,427.50
2018-05-08T10:35:56.721Z,433.13
2018-05-08T10:36:56.601Z,427.50
2018-05-08T10:37:56.490Z,410.63
2018-05-08T10:38:56.378Z,405.00
2018-05-08T10:39:56.259Z,376.88
2018-05-08T10:40:56.147Z,393.75
2018-05-08T10:41:56.034Z,405.00
2018-05-08T10:42:55.916Z,399.38
2018-05-08T10:43:55.805Z,393.75
2018-05-08T10:44:55.690Z,393.75
2018-05-08T10:45:55.579Z,388.13
2018-05-08T10:46:55.460Z,376.88
2018-05-08T10:47:55.348Z,382.50
2018-05-08T10:48:55.233Z,393.75
2018-05-08T10:49:55.119Z,433.13
2018-05-08T10:50:55.006Z,455.63
2018-05-08T10:51:54.890Z,438.75
2018-05-08T10:52:54.784Z,433.13
2018-05-08T10:53:54.662Z,438.75
2018-05-08T10:54:54.545Z,455.63
2018-05-08T10:55:54.433Z,450.00
2018-05-08T10:56:54.324Z,455.63
2018-05-08T10:57:54.208Z,450.00
2018-05-08T10:58:54.089Z,450.00
2018-05-08T10:59:53.975Z,450.00
2018-05-08T11:00:53.864Z,466.88
2018-05-08T11:01:53.751Z,472.50
2018-05-08T11:02:53.636Z,478.13
2018-05-08T11:03:53.522Z,478.13
2018-05-08T11:04:53.409Z,489.38
2018-05-08T11:05:53.297Z,534.38
2018-05-08T11:06:53.181Z,511.88
2018-05-08T11:07:53.074Z,416.25
2018-05-08T11:08:52.956Z,427.50
2018-05-08T11:09:52.842Z,281.25
2018-05-08T11:10:52.730Z,275.63
2018-05-08T11:11:52.620Z,258.75
2018-05-08T11:12:52.501Z,253.13
2018-05-08T11:13:52.389Z,241.88
2018-05-08T11:14:52.275Z,230.63
2018-05-08T11:15:52.163Z,219.38
2018-05-08T11:16:52.048Z,213.75
2018-05-08T11:17:51.935Z,219.38
2018-05-08T11:18:51.817Z,219.38
2018-05-08T11:19:51.733Z,225.00
2018-05-08T11:20:51.590Z,225.00
2018-05-08T11:21:51.475Z,219.38
2018-05-08T11:22:51.359Z,219.38
2018-05-08T11:23:51.244Z,219.38
2018-05-08T11:24:51.127Z,225.00
2018-05-08T11:25:51.014Z,225.00
2018-05-08T11:26:50.934Z,230.63
2018-05-08T11:27:50.781Z,236.25
2018-05-08T11:28:50.665Z,241.88
2018-05-08T11:29:50.552Z,236.25
2018-05-08T11:30:50.437Z,241.88
2018-05-08T11:31:50.324Z,236.25
2018-05-08T11:32:50.211Z,241.88
2018-05-08T11:33:50.089Z,253.13
2018-05-08T11:34:49.973Z,275.63
2018-05-08T11:35:49.857Z,303.75
2018-05-08T11:36:49.742Z,331.88
2018-05-08T11:37:49.626Z,354.38
2018-05-08T11:38:49.511Z,393.75
2018-05-08T11:39:49.392Z,495.00
2018-05-08T11:40:49.279Z,601.88
2018-05-08T11:41:49.162Z,438.75
2018-05-08T11:42:49.048Z,478.13
2018-05-08T11:43:48.930Z,556.88
2018-05-08T11:44:48.841Z,461.25
2018-05-08T11:45:48.701Z,551.25
2018-05-08T11:46:48.587Z,517.50
2018-05-08T11:47:48.467Z,697.50
2018-05-08T11:48:48.355Z,731.25
2018-05-08T11:49:48.242Z,748.13
2018-05-08T11:50:48.125Z,736.88
2018-05-08T11:51:48.020Z,720.00
2018-05-08T11:52:47.899Z,697.50
2018-05-08T11:53:47.785Z,691.88
2018-05-08T11:54:47.671Z,658.13
2018-05-08T11:55:47.555Z,641.25
2018-05-08T11:56:47.445Z,641.25
2018-05-08T11:57:47.332Z,652.50
2018-05-08T11:58:47.217Z,641.25
2018-05-08T11:59:47.106Z,618.75
2018-05-08T12:00:47.001Z,590.63
2018-05-08T12:01:46.880Z,568.13
2018-05-08T12:02:46.766Z,562.50
2018-05-08T12:03:46.656Z,568.13
2018-05-08T12:04:46.544Z,630.00
2018-05-08T12:05:46.432Z,669.38
2018-05-08T12:06:46.318Z,669.38
2018-05-08T12:07:46.209Z,697.50
2018-05-08T12:08:46.095Z,669.38
2018-05-08T12:09:45.984Z,635.63
2018-05-08T12:10:45.875Z,444.38
2018-05-08T12:11:45.763Z,320.63
2018-05-08T12:12:45.652Z,270.00
2018-05-08T12:13:45.538Z,253.13
2018-05-08T12:14:45.478Z,258.75
2018-05-08T12:15:45.316Z,270.00
2018-05-08T12:16:45.204Z,292.50
2018-05-08T12:17:45.093Z,343.13
2018-05-08T12:18:44.985Z,365.63
2018-05-08T12:19:44.867Z,382.50
2018-05-08T12:20:44.755Z,416.25
2018-05-08T12:21:44.655Z,354.38
2018-05-08T12:22:44.525Z,534.38
2018-05-08T12:23:44.412Z,624.38
2018-05-08T12:24:44.302Z,635.63
2018-05-08T12:25:44.189Z,641.25
2018-05-08T12:26:44.072Z,652.50
2018-05-08T12:27:43.961Z,675.00
2018-05-08T12:28:43.846Z,675.00
2018-05-08T12:29:43.735Z,686.25
2018-05-08T12:30:43.630Z,669.38
2018-05-08T12:31:43.511Z,691.88
2018-05-08T12:32:43.394Z,556.88
2018-05-08T12:33:43.289Z,556.88
2018-05-08T12:34:43.177Z,596.25
2018-05-08T12:35:43.060Z,371.25
2018-05-08T12:36:42.947Z,348.75
2018-05-08T12:37:42.835Z,399.38
2018-05-08T12:38:42.724Z,568.13
2018-05-08T12:39:42.611Z,815.63
2018-05-08T12:40:42.498Z,883.13
2018-05-08T12:41:42.388Z,933.75
2018-05-08T12:42:42.282Z,950.63
2018-05-08T12:43:42.163Z,984.38
2018-05-08T12:44:42.060Z,973.13
2018-05-08T12:45:41.941Z,945.00